createdAt,value
2018-01-28T00:01:15.980Z,1022.04
2018-01-28T00:02:43.371Z,1022.13
2018-01-28T00:04:10.566Z,1022.10
2018-01-28T00:05:37.538Z,1022.11
2018-01-28T00:07:04.809Z,1022.01
2018-01-28T00:08:31.500Z,1021.99
2018-01-28T00:09:58.677Z,1021.98
2018-01-28T00:11:25.767Z,1021.97
2018-01-28T00:12:52.976Z,1021.99
2018-01-28T00:14:20.314Z,1021.99
2018-01-28T00:15:47.232Z,1021.94
2018-01-28T00:17:14.377Z,1021.96
2018-01-28T00:18:41.411Z,1021.96
2018-01-28T00:20:08.618Z,1021.93
2018-01-28T00:21:35.541Z,1021.95
2018-01-28T00:23:02.513Z,1021.92
2018-01-28T00:24:29.651Z,1021.92
2018-01-28T00:25:56.702Z,1021.83
2018-01-28T00:27:23.735Z,1021.77
2018-01-28T00:28:50.906Z,1021.77
2018-01-28T00:30:18.311Z,1021.69
2018-01-28T00:31:45.736Z,1021.67
2018-01-28T00:33:12.926Z,1021.64
2018-01-28T00:34:40.118Z,1021.56
2018-01-28T00:36:07.053Z,1021.48
2018-01-28T00:37:34.034Z,1021.42
2018-01-28T00:39:01.113Z,1021.48
2018-01-28T00:40:28.451Z,1021.53
2018-01-28T00:41:55.665Z,1021.55
2018-01-28T00:43:22.632Z,1021.55
2018-01-28T00:44:50.060Z,1021.47
2018-01-28T00:46:17.256Z,1021.43
2018-01-28T00:47:44.652Z,1021.49
2018-01-28T00:49:11.905Z,1021.59
2018-01-28T00:50:39.181Z,1021.58
2018-01-28T00:52:06.291Z,1021.38
2018-01-28T00:53:33.711Z,1021.34
2018-01-28T00:55:00.831Z,1021.24
2018-01-28T00:56:28.107Z,1021.29
2018-01-28T00:57:55.235Z,1021.39
2018-01-28T00:59:22.624Z,1021.28
2018-01-28T01:00:49.916Z,1021.26
2018-01-28T01:02:17.312Z,1021.25
2018-01-28T01:03:44.446Z,1021.25
2018-01-28T01:05:11.807Z,1021.27
2018-01-28T01:06:39.017Z,1021.25
2018-01-28T01:08:06.289Z,1021.16
2018-01-28T01:09:33.521Z,1021.17
2018-01-28T01:11:00.723Z,1021.07
2018-01-28T01:12:28.526Z,1021.10
2018-01-28T01:13:54.745Z,1021.13
2018-01-28T01:15:22.238Z,1021.13
2018-01-28T01:16:49.341Z,1021.12
2018-01-28T01:18:16.617Z,1021.10
2018-01-28T01:19:43.729Z,1021.08
2018-01-28T01:21:10.666Z,1021.09
2018-01-28T01:22:37.546Z,1021.06
2018-01-28T01:24:04.829Z,1021.02
2018-01-28T01:25:31.929Z,1021.01
2018-01-28T01:26:59.180Z,1020.94
2018-01-28T01:28:26.602Z,1020.93
2018-01-28T01:29:53.911Z,1020.89
2018-01-28T01:31:21.171Z,1020.95
2018-01-28T01:32:47.968Z,1020.93
2018-01-28T01:34:15.310Z,1020.98
2018-01-28T01:35:42.616Z,1020.93
2018-01-28T01:37:10.004Z,1020.89
2018-01-28T01:38:37.077Z,1020.85
2018-01-28T01:40:03.910Z,1020.86
2018-01-28T01:41:31.043Z,1020.83
2018-01-28T01:42:58.511Z,1020.85
2018-01-28T01:44:25.757Z,1020.83
2018-01-28T01:45:52.981Z,1020.84
2018-01-28T01:47:20.264Z,1020.79
2018-01-28T01:48:47.618Z,1020.76
2018-01-28T01:50:14.980Z,1020.76
2018-01-28T01:51:41.689Z,1020.73
2018-01-28T01:53:08.954Z,1020.77
2018-01-28T01:54:36.183Z,1020.72
2018-01-28T01:56:03.418Z,1020.72
2018-01-28T01:57:30.752Z,1020.72
2018-01-28T01:58:57.728Z,1020.69
2018-01-28T02:00:24.924Z,1020.59
2018-01-28T02:01:52.135Z,1020.59
2018-01-28T02:03:19.476Z,1020.57
2018-01-28T02:04:46.726Z,1020.56
2018-01-28T02:06:13.956Z,1020.51
2018-01-28T02:07:41.060Z,1020.47
2018-01-28T02:09:08.221Z,1020.46
2018-01-28T02:10:35.424Z,1020.44
2018-01-28T02:12:02.352Z,1020.50
2018-01-28T02:13:29.660Z,1020.56
2018-01-28T02:14:57.077Z,1020.55
2018-01-28T02:16:23.843Z,1020.54
2018-01-28T02:17:50.990Z,1020.54
2018-01-28T02:19:18.055Z,1020.56
2018-01-28T02:20:45.232Z,1020.65
2018-01-28T02:22:12.631Z,1020.63
2018-01-28T02:23:39.732Z,1020.64
2018-01-28T02:25:06.848Z,1020.66
2018-01-28T02:26:33.995Z,1020.67
2018-01-28T02:28:01.035Z,1020.62
2018-01-28T02:29:28.425Z,1020.60
2018-01-28T02:30:55.651Z,1020.57
2018-01-28T02:32:23.111Z,1020.62
2018-01-28T02:33:50.197Z,1020.64
2018-01-28T02:35:17.576Z,1020.65
2018-01-28T02:36:44.557Z,1020.54
2018-01-28T02:38:11.877Z,1020.50
2018-01-28T02:39:38.858Z,1020.51
2018-01-28T02:41:05.896Z,1020.47
2018-01-28T02:42:33.025Z,1020.37
2018-01-28T02:44:00.167Z,1020.41
2018-01-28T02:45:27.536Z,1020.43
2018-01-28T02:46:54.662Z,1020.41
2018-01-28T02:48:22.005Z,1020.45
2018-01-28T02:49:49.353Z,1020.42
2018-01-28T02:51:16.208Z,1020.38
2018-01-28T02:52:43.382Z,1020.51
2018-01-28T02:54:10.611Z,1020.66
2018-01-28T02:55:37.887Z,1020.57
2018-01-28T02:57:04.809Z,1020.57
2018-01-28T02:58:32.016Z,1020.63
2018-01-28T02:59:59.175Z,1020.62
2018-01-28T03:01:26.541Z,1020.55
2018-01-28T03:02:53.760Z,1020.67
2018-01-28T03:04:20.906Z,1020.59
2018-01-28T03:05:48.299Z,1020.63
2018-01-28T03:07:15.811Z,1020.66
2018-01-28T03:08:42.935Z,1020.65
2018-01-28T03:10:10.264Z,1020.70
2018-01-28T03:11:37.469Z,1020.69
2018-01-28T03:13:04.331Z,1020.72
2018-01-28T03:14:31.245Z,1020.66
2018-01-28T03:15:58.498Z,1020.78
2018-01-28T03:17:25.895Z,1020.89
2018-01-28T03:18:53.024Z,1020.86
2018-01-28T03:20:20.281Z,1020.79
2018-01-28T03:21:47.478Z,1020.85
2018-01-28T03:23:14.772Z,1020.98
2018-01-28T03:24:42.118Z,1021.02
2018-01-28T03:26:09.430Z,1021.01
2018-01-28T03:27:36.404Z,1021.00
2018-01-28T03:29:03.623Z,1021.03
2018-01-28T03:30:30.790Z,1021.11
2018-01-28T03:31:58.171Z,1021.06
2018-01-28T03:33:25.347Z,1021.09
2018-01-28T03:34:52.779Z,1021.08
2018-01-28T03:36:20.074Z,1021.06
2018-01-28T03:37:47.019Z,1021.00
2018-01-28T03:39:14.277Z,1020.96
2018-01-28T03:40:41.516Z,1021.00
2018-01-28T03:42:08.882Z,1021.01
2018-01-28T03:43:36.031Z,1021.08
2018-01-28T03:45:03.145Z,1021.08
2018-01-28T03:46:30.272Z,1021.06
2018-01-28T03:47:57.611Z,1021.13
2018-01-28T03:49:24.623Z,1021.08
2018-01-28T03:50:51.930Z,1021.07
2018-01-28T03:52:19.226Z,1021.08
2018-01-28T03:53:46.440Z,1021.03
2018-01-28T03:55:13.686Z,1021.00
2018-01-28T03:56:41.070Z,1021.10
2018-01-28T03:58:08.318Z,1021.21
2018-01-28T03:59:35.495Z,1021.26
2018-01-28T04:01:02.747Z,1021.27
2018-01-28T04:02:29.504Z,1021.27
2018-01-28T04:03:56.581Z,1021.28
2018-01-28T04:05:23.868Z,1021.27
2018-01-28T04:06:50.977Z,1021.28
2018-01-28T04:08:18.242Z,1021.30
2018-01-28T04:09:45.604Z,1021.28
2018-01-28T04:11:12.828Z,1021.19
2018-01-28T04:12:40.075Z,1021.23
2018-01-28T04:14:07.225Z,1021.19
2018-01-28T04:15:34.437Z,1021.16
2018-01-28T04:17:01.348Z,1021.26
2018-01-28T04:18:28.573Z,1021.26
2018-01-28T04:19:55.832Z,1021.20
2018-01-28T04:21:22.977Z,1021.08
2018-01-28T04:22:50.316Z,1021.17
2018-01-28T04:24:17.690Z,1021.23
2018-01-28T04:25:45.061Z,1021.25
2018-01-28T04:27:12.326Z,1021.24
2018-01-28T04:28:39.067Z,1021.37
2018-01-28T04:30:05.964Z,1021.40
2018-01-28T04:31:33.041Z,1021.34
2018-01-28T04:33:00.238Z,1021.34
2018-01-28T04:34:27.592Z,1021.41
2018-01-28T04:35:54.790Z,1021.46
2018-01-28T04:37:22.092Z,1021.43
2018-01-28T04:38:49.326Z,1021.43
2018-01-28T04:40:16.554Z,1021.49
2018-01-28T04:41:43.787Z,1021.51
2018-01-28T04:43:10.949Z,1021.56
2018-01-28T04:44:38.007Z,1021.54
2018-01-28T04:46:05.457Z,1021.53
2018-01-28T04:47:32.311Z,1021.54
2018-01-28T04:48:59.438Z,1021.54
2018-01-28T04:50:26.484Z,1021.57
2018-01-28T04:51:53.545Z,1021.62
2018-01-28T04:53:20.760Z,1021.67
2018-01-28T04:54:47.820Z,1021.70
2018-01-28T04:56:14.772Z,1021.60
2018-01-28T04:57:41.983Z,1021.61
2018-01-28T04:59:09.227Z,1021.56
2018-01-28T05:00:36.419Z,1021.55
2018-01-28T05:02:03.745Z,1021.51
2018-01-28T05:03:30.964Z,1021.49
2018-01-28T05:04:58.118Z,1021.56
2018-01-28T05:06:25.439Z,1021.49
2018-01-28T05:07:52.814Z,1021.53
2018-01-28T05:09:20.170Z,1021.59
2018-01-28T05:10:47.536Z,1021.52
2018-01-28T05:12:14.713Z,1021.60
2018-01-28T05:13:42.176Z,1021.63
2018-01-28T05:15:09.508Z,1021.68
2018-01-28T05:16:36.858Z,1021.69
2018-01-28T05:18:03.848Z,1021.66
2018-01-28T05:19:31.135Z,1021.64
2018-01-28T05:20:58.276Z,1021.63
2018-01-28T05:22:25.501Z,1021.68
2018-01-28T05:23:52.776Z,1021.75
2018-01-28T05:25:20.078Z,1021.75
2018-01-28T05:26:47.382Z,1021.74
2018-01-28T05:28:14.747Z,1021.73
2018-01-28T05:29:41.854Z,1021.70
2018-01-28T05:31:08.989Z,1021.82
2018-01-28T05:32:36.085Z,1021.84
2018-01-28T05:34:03.296Z,1021.95
2018-01-28T05:35:30.554Z,1022.02
2018-01-28T05:36:57.841Z,1022.11
2018-01-28T05:38:25.086Z,1022.05
2018-01-28T05:39:52.280Z,1022.07
2018-01-28T05:41:19.545Z,1022.03
2018-01-28T05:42:46.756Z,1022.00
2018-01-28T05:44:13.948Z,1022.03
2018-01-28T05:45:41.155Z,1022.10
2018-01-28T05:47:08.564Z,1022.12
2018-01-28T05:48:35.849Z,1022.15
2018-01-28T05:50:03.002Z,1022.16
2018-01-28T05:51:30.200Z,1022.17
2018-01-28T05:52:57.229Z,1022.26
2018-01-28T05:54:24.438Z,1022.28
2018-01-28T05:55:51.755Z,1022.29
2018-01-28T05:57:19.093Z,1022.28
2018-01-28T05:58:46.356Z,1022.27
2018-01-28T06:00:13.737Z,1022.23
2018-01-28T06:01:40.853Z,1022.29
2018-01-28T06:03:08.141Z,1022.29
2018-01-28T06:04:35.097Z,1022.24
2018-01-28T06:06:02.363Z,1022.16
2018-01-28T06:07:29.572Z,1022.14
2018-01-28T06:08:56.921Z,1022.22
2018-01-28T06:10:24.014Z,1022.24
2018-01-28T06:11:50.970Z,1022.23
2018-01-28T06:13:18.291Z,1022.27
2018-01-28T06:14:45.485Z,1022.29
2018-01-28T06:16:12.659Z,1022.27
2018-01-28T06:17:39.816Z,1022.27
2018-01-28T06:19:06.921Z,1022.24
2018-01-28T06:20:34.166Z,1022.17
2018-01-28T06:22:01.375Z,1022.19
2018-01-28T06:23:28.498Z,1022.21
2018-01-28T06:24:55.913Z,1022.28
2018-01-28T06:26:23.199Z,1022.26
2018-01-28T06:27:50.479Z,1022.29
2018-01-28T06:29:17.447Z,1022.35
2018-01-28T06:30:44.757Z,1022.39
2018-01-28T06:32:12.109Z,1022.37
2018-01-28T06:33:39.352Z,1022.29
2018-01-28T06:35:06.441Z,1022.32
2018-01-28T06:36:33.810Z,1022.33
2018-01-28T06:38:00.695Z,1022.33
2018-01-28T06:39:27.939Z,1022.45
2018-01-28T06:40:55.094Z,1022.51
2018-01-28T06:42:22.030Z,1022.58
2018-01-28T06:43:49.359Z,1022.60
2018-01-28T06:45:16.489Z,1022.65
2018-01-28T06:46:43.815Z,1022.60
2018-01-28T06:48:11.156Z,1022.62
2018-01-28T06:49:38.368Z,1022.60
2018-01-28T06:51:05.530Z,1022.61
2018-01-28T06:52:32.705Z,1022.62
2018-01-28T06:53:59.601Z,1022.64
2018-01-28T06:55:26.917Z,1022.64
2018-01-28T06:56:54.351Z,1022.68
2018-01-28T06:58:21.418Z,1022.75
2018-01-28T06:59:48.753Z,1022.75
2018-01-28T07:01:15.886Z,1022.68
2018-01-28T07:02:43.168Z,1022.71
2018-01-28T07:04:10.366Z,1022.73
2018-01-28T07:05:37.785Z,1022.78
2018-01-28T07:07:05.000Z,1022.78
2018-01-28T07:08:32.354Z,1022.86
2018-01-28T07:09:59.704Z,1022.85
2018-01-28T07:11:26.984Z,1022.86
2018-01-28T07:12:54.136Z,1022.90
2018-01-28T07:14:21.414Z,1022.92
2018-01-28T07:15:48.860Z,1022.88
2018-01-28T07:17:16.191Z,1022.91
2018-01-28T07:18:43.551Z,1022.98
2018-01-28T07:20:10.919Z,1022.96
2018-01-28T07:21:38.254Z,1022.88
2018-01-28T07:23:05.623Z,1022.85
2018-01-28T07:24:32.881Z,1022.84
2018-01-28T07:25:59.910Z,1022.91
2018-01-28T07:27:27.109Z,1023.01
2018-01-28T07:28:54.280Z,1023.00
2018-01-28T07:30:21.428Z,1023.01
2018-01-28T07:31:48.865Z,1023.02
2018-01-28T07:33:16.080Z,1023.00
2018-01-28T07:34:43.360Z,1023.05
2018-01-28T07:36:10.674Z,1023.13
2018-01-28T07:37:37.918Z,1023.14
2018-01-28T07:39:05.166Z,1023.13
2018-01-28T07:40:32.270Z,1023.05
2018-01-28T07:41:59.473Z,1023.06
2018-01-28T07:43:26.756Z,1023.09
2018-01-28T07:44:53.908Z,1023.07
2018-01-28T07:46:21.343Z,1023.13
2018-01-28T07:47:48.669Z,1023.16
2018-01-28T07:49:15.907Z,1023.15
2018-01-28T07:50:43.180Z,1023.18
2018-01-28T07:52:10.477Z,1023.19
2018-01-28T07:53:37.771Z,1023.22
2018-01-28T07:55:04.864Z,1023.25
2018-01-28T07:56:32.187Z,1023.30
2018-01-28T07:57:59.617Z,1023.31
2018-01-28T07:59:27.074Z,1023.30
2018-01-28T08:00:54.207Z,1023.27
2018-01-28T08:02:21.525Z,1023.29
2018-01-28T08:03:49.001Z,1023.20
2018-01-28T08:05:16.348Z,1023.20
2018-01-28T08:06:43.654Z,1023.23
2018-01-28T08:08:10.979Z,1023.25
2018-01-28T08:09:38.223Z,1023.31
2018-01-28T08:11:05.425Z,1023.29
2018-01-28T08:12:32.637Z,1023.34
2018-01-28T08:13:59.735Z,1023.41
2018-01-28T08:15:27.177Z,1023.40
2018-01-28T08:16:54.544Z,1023.40
2018-01-28T08:18:21.776Z,1023.32
2018-01-28T08:19:49.172Z,1023.44
2018-01-28T08:21:16.578Z,1023.50
2018-01-28T08:22:43.792Z,1023.50
2018-01-28T08:24:11.158Z,1023.51
2018-01-28T08:25:38.347Z,1023.53
2018-01-28T08:27:05.565Z,1023.54
2018-01-28T08:28:32.630Z,1023.53
2018-01-28T08:29:59.661Z,1023.56
2018-01-28T08:31:27.027Z,1023.63
2018-01-28T08:32:54.440Z,1023.60
2018-01-28T08:34:21.686Z,1023.61
2018-01-28T08:35:49.115Z,1023.66
2018-01-28T08:37:16.300Z,1023.66
2018-01-28T08:38:43.555Z,1023.65
2018-01-28T08:40:10.738Z,1023.64
2018-01-28T08:41:38.045Z,1023.63
2018-01-28T08:43:05.450Z,1023.61
2018-01-28T08:44:32.320Z,1023.67
2018-01-28T08:45:59.700Z,1023.69
2018-01-28T08:47:27.049Z,1023.65
2018-01-28T08:48:54.338Z,1023.62
2018-01-28T08:50:21.540Z,1023.62
2018-01-28T08:51:48.747Z,1023.65
2018-01-28T08:53:16.082Z,1023.74
2018-01-28T08:54:43.273Z,1023.85
2018-01-28T08:56:10.531Z,1023.85
2018-01-28T08:57:37.875Z,1023.89
2018-01-28T08:59:04.995Z,1023.88
2018-01-28T09:00:32.070Z,1023.89
2018-01-28T09:01:59.345Z,1023.89
2018-01-28T09:03:26.651Z,1023.87
2018-01-28T09:04:53.824Z,1023.87
2018-01-28T09:06:21.333Z,1023.86
2018-01-28T09:07:48.520Z,1023.86
2018-01-28T09:09:15.977Z,1023.85
2018-01-28T09:10:43.221Z,1023.89
2018-01-28T09:12:10.604Z,1023.90
2018-01-28T09:13:37.993Z,1023.86
2018-01-28T09:15:05.022Z,1023.81
2018-01-28T09:16:32.292Z,1023.86
2018-01-28T09:17:59.603Z,1023.83
2018-01-28T09:19:26.944Z,1023.86
2018-01-28T09:20:54.416Z,1023.91
2018-01-28T09:22:21.541Z,1023.95
2018-01-28T09:23:48.856Z,1023.92
2018-01-28T09:25:16.157Z,1023.88
2018-01-28T09:26:43.328Z,1023.91
2018-01-28T09:28:10.554Z,1023.84
2018-01-28T09:29:37.865Z,1023.77
2018-01-28T09:31:05.339Z,1023.75
2018-01-28T09:32:32.674Z,1023.89
2018-01-28T09:33:59.729Z,1023.88
2018-01-28T09:35:27.071Z,1023.90
2018-01-28T09:36:54.300Z,1023.86
2018-01-28T09:38:21.783Z,1023.79
2018-01-28T09:39:49.068Z,1023.78
2018-01-28T09:41:16.381Z,1023.74
2018-01-28T09:42:43.654Z,1023.66
2018-01-28T09:44:11.055Z,1023.62
2018-01-28T09:45:38.281Z,1023.62
2018-01-28T09:47:05.454Z,1023.65
2018-01-28T09:48:32.779Z,1023.71
2018-01-28T09:49:59.848Z,1023.77
2018-01-28T09:51:27.281Z,1023.82
2018-01-28T09:52:54.542Z,1023.91
2018-01-28T09:54:21.801Z,1023.93
2018-01-28T09:55:49.095Z,1023.96
2018-01-28T09:57:16.296Z,1023.98
2018-01-28T09:58:43.561Z,1024.05
2018-01-28T10:00:10.696Z,1024.16
2018-01-28T10:01:38.001Z,1024.14
2018-01-28T10:03:05.268Z,1024.17
2018-01-28T10:04:32.494Z,1024.12
2018-01-28T10:05:59.892Z,1024.19
2018-01-28T10:07:27.063Z,1024.23
2018-01-28T10:08:54.310Z,1024.31
2018-01-28T10:10:21.567Z,1024.31
2018-01-28T10:11:48.947Z,1024.26
2018-01-28T10:13:16.392Z,1024.26
2018-01-28T10:14:43.492Z,1024.28
2018-01-28T10:16:10.704Z,1024.38
2018-01-28T10:17:38.049Z,1024.35
2018-01-28T10:19:05.438Z,1024.37
2018-01-28T10:20:32.426Z,1024.45
2018-01-28T10:21:59.717Z,1024.49
2018-01-28T10:23:26.994Z,1024.49
2018-01-28T10:24:54.238Z,1024.45
2018-01-28T10:26:21.445Z,1024.45
2018-01-28T10:27:48.725Z,1024.38
2018-01-28T10:29:16.003Z,1024.41
2018-01-28T10:30:43.254Z,1024.41
2018-01-28T10:32:10.629Z,1024.33
2018-01-28T10:33:37.957Z,1024.34
2018-01-28T10:35:05.167Z,1024.35
2018-01-28T10:36:32.253Z,1024.38
2018-01-28T10:37:59.659Z,1024.41
2018-01-28T10:39:26.957Z,1024.46
2018-01-28T10:40:54.186Z,1024.52
2018-01-28T10:42:21.495Z,1024.49
2018-01-28T10:43:48.847Z,1024.45
2018-01-28T10:45:16.105Z,1024.35
2018-01-28T10:46:43.374Z,1024.29
2018-01-28T10:48:10.405Z,1024.29
2018-01-28T10:49:37.529Z,1024.25
2018-01-28T10:51:04.740Z,1024.23
2018-01-28T10:52:31.989Z,1024.23
2018-01-28T10:53:59.271Z,1024.36
2018-01-28T10:55:26.580Z,1024.37
2018-01-28T10:56:53.856Z,1024.44
2018-01-28T10:58:21.288Z,1024.46
2018-01-28T10:59:48.729Z,1024.45
2018-01-28T11:01:16.015Z,1024.51
2018-01-28T11:02:43.341Z,1024.39
2018-01-28T11:04:10.837Z,1024.42
2018-01-28T11:05:38.003Z,1024.44
2018-01-28T11:07:05.277Z,1024.40
2018-01-28T11:08:32.562Z,1024.43
2018-01-28T11:09:59.610Z,1024.44
2018-01-28T11:11:26.938Z,1024.52
2018-01-28T11:12:54.140Z,1024.53
2018-01-28T11:14:21.411Z,1024.59
2018-01-28T11:15:48.774Z,1024.63
2018-01-28T11:17:16.081Z,1024.49
2018-01-28T11:18:43.178Z,1024.41
2018-01-28T11:20:10.499Z,1024.38
2018-01-28T11:21:37.847Z,1024.35
2018-01-28T11:23:05.235Z,1024.36
2018-01-28T11:24:32.262Z,1024.38
2018-01-28T11:25:59.621Z,1024.41
2018-01-28T11:27:26.938Z,1024.42
2018-01-28T11:28:54.331Z,1024.32
2018-01-28T11:30:21.540Z,1024.36
2018-01-28T11:31:48.703Z,1024.46
2018-01-28T11:33:16.096Z,1024.45
2018-01-28T11:34:43.393Z,1024.51
2018-01-28T11:36:10.594Z,1024.37
2018-01-28T11:37:37.917Z,1024.40
2018-01-28T11:39:05.169Z,1024.33
2018-01-28T11:40:32.517Z,1024.27
2018-01-28T11:41:59.643Z,1024.20
2018-01-28T11:43:26.981Z,1024.22
2018-01-28T11:44:54.381Z,1024.20
2018-01-28T11:46:21.568Z,1024.29
2018-01-28T11:47:49.008Z,1024.26
2018-01-28T11:49:16.248Z,1024.31
2018-01-28T11:50:43.551Z,1024.36
2018-01-28T11:52:10.972Z,1024.35
2018-01-28T11:53:38.181Z,1024.32
2018-01-28T11:55:05.515Z,1024.27
2018-01-28T11:56:32.680Z,1024.32
2018-01-28T11:57:59.807Z,1024.29
2018-01-28T11:59:27.096Z,1024.28
2018-01-28T12:00:54.442Z,1024.25
2018-01-28T12:02:21.782Z,1024.21
2018-01-28T12:03:49.036Z,1024.25
2018-01-28T12:05:16.362Z,1024.30
2018-01-28T12:06:43.618Z,1024.27
2018-01-28T12:08:10.942Z,1024.25
2018-01-28T12:09:38.193Z,1024.30
2018-01-28T12:11:05.435Z,1024.32
2018-01-28T12:12:32.601Z,1024.31
2018-01-28T12:14:00.077Z,1024.29
2018-01-28T12:15:27.314Z,1024.36
2018-01-28T12:16:54.686Z,1024.36
2018-01-28T12:18:22.090Z,1024.33
2018-01-28T12:19:49.365Z,1024.31
2018-01-28T12:21:16.573Z,1024.28
2018-01-28T12:22:43.724Z,1024.27
2018-01-28T12:24:11.052Z,1024.26
2018-01-28T12:25:38.242Z,1024.27
2018-01-28T12:27:05.720Z,1024.22
2018-01-28T12:28:32.947Z,1024.26
2018-01-28T12:30:00.104Z,1024.21
2018-01-28T12:31:27.393Z,1024.15
2018-01-28T12:32:54.682Z,1024.10
2018-01-28T12:34:22.149Z,1024.05
2018-01-28T12:35:49.365Z,1024.05
2018-01-28T12:37:16.612Z,1024.08
2018-01-28T12:38:43.979Z,1024.07
2018-01-28T12:40:11.370Z,1024.06
2018-01-28T12:41:38.769Z,1024.02
2018-01-28T12:43:05.946Z,1023.97
2018-01-28T12:44:33.397Z,1024.01
2018-01-28T12:46:00.420Z,1024.06
2018-01-28T12:47:27.739Z,1024.13
2018-01-28T12:48:55.214Z,1024.15
2018-01-28T12:50:22.468Z,1024.21
2018-01-28T12:51:49.649Z,1024.19
2018-01-28T12:53:17.055Z,1024.12
2018-01-28T12:54:44.151Z,1024.10
2018-01-28T12:56:11.547Z,1024.08
2018-01-28T12:57:38.941Z,1024.06
2018-01-28T12:59:06.217Z,1024.04
2018-01-28T13:00:33.559Z,1024.03
2018-01-28T13:02:00.857Z,1024.11
2018-01-28T13:03:28.233Z,1024.14
2018-01-28T13:04:55.622Z,1024.10
2018-01-28T13:06:22.990Z,1024.05
2018-01-28T13:07:50.310Z,1023.99
2018-01-28T13:09:17.603Z,1023.98
2018-01-28T13:10:44.990Z,1023.91
2018-01-28T13:12:12.194Z,1023.95
2018-01-28T13:13:39.446Z,1023.97
2018-01-28T13:15:06.819Z,1023.87
2018-01-28T13:16:34.136Z,1023.90
2018-01-28T13:18:01.438Z,1023.87
2018-01-28T13:19:28.687Z,1023.95
2018-01-28T13:20:56.027Z,1023.93
2018-01-28T13:22:23.250Z,1024.00
2018-01-28T13:23:50.679Z,1023.98
2018-01-28T13:25:18.032Z,1023.96
2018-01-28T13:26:45.389Z,1023.92
2018-01-28T13:28:12.750Z,1023.96
2018-01-28T13:29:40.122Z,1023.92
2018-01-28T13:31:07.430Z,1023.93
2018-01-28T13:32:34.643Z,1023.94
2018-01-28T13:34:01.781Z,1023.94
2018-01-28T13:35:29.037Z,1023.91
2018-01-28T13:36:56.459Z,1023.90
2018-01-28T13:38:23.542Z,1023.90
2018-01-28T13:39:50.755Z,1023.93
2018-01-28T13:41:18.109Z,1023.92
2018-01-28T13:42:45.603Z,1023.96
2018-01-28T13:44:12.876Z,1023.96
2018-01-28T13:45:40.306Z,1023.98
2018-01-28T13:47:07.493Z,1024.01
2018-01-28T13:48:34.861Z,1024.00
2018-01-28T13:50:02.077Z,1024.06
2018-01-28T13:51:29.428Z,1024.02
2018-01-28T13:52:56.687Z,1024.01
2018-01-28T13:54:23.839Z,1024.01
2018-01-28T13:55:51.089Z,1024.07
2018-01-28T13:57:18.535Z,1024.05
2018-01-28T13:58:45.653Z,1024.09
2018-01-28T14:00:12.999Z,1024.10
2018-01-28T14:01:40.226Z,1024.06
2018-01-28T14:03:07.466Z,1024.06
2018-01-28T14:04:34.712Z,1024.11
2018-01-28T14:06:02.066Z,1024.05
2018-01-28T14:07:29.392Z,1024.05
2018-01-28T14:08:56.765Z,1024.09
2018-01-28T14:10:24.093Z,1024.00
2018-01-28T14:11:51.432Z,1023.97
2018-01-28T14:13:18.603Z,1024.03
2018-01-28T14:14:45.947Z,1023.99
2018-01-28T14:16:13.308Z,1024.11
2018-01-28T14:17:40.578Z,1024.15
2018-01-28T14:19:07.958Z,1024.16
2018-01-28T14:20:35.231Z,1024.13
2018-01-28T14:22:02.521Z,1024.11
2018-01-28T14:23:29.596Z,1024.19
2018-01-28T14:24:56.924Z,1024.22
2018-01-28T14:26:24.317Z,1024.25
2018-01-28T14:27:51.249Z,1024.30
2018-01-28T14:29:18.603Z,1024.29
2018-01-28T14:30:45.997Z,1024.34
2018-01-28T14:32:13.229Z,1024.38
2018-01-28T14:33:40.558Z,1024.35
2018-01-28T14:35:07.670Z,1024.35
2018-01-28T14:36:35.053Z,1024.36
2018-01-28T14:38:02.242Z,1024.31
2018-01-28T14:39:29.536Z,1024.34
2018-01-28T14:40:56.992Z,1024.31
2018-01-28T14:42:24.346Z,1024.37
2018-01-28T14:43:52.184Z,1024.42
2018-01-28T14:45:19.348Z,1024.42
2018-01-28T14:46:46.630Z,1024.42
2018-01-28T14:48:13.869Z,1024.40
2018-01-28T14:49:41.066Z,1024.31
2018-01-28T14:51:08.406Z,1024.33
2018-01-28T14:52:35.677Z,1024.29
2018-01-28T14:54:02.883Z,1024.19
2018-01-28T14:55:29.791Z,1024.13
2018-01-28T14:56:56.990Z,1024.14
2018-01-28T14:58:24.151Z,1024.11
2018-01-28T14:59:51.467Z,1024.15
2018-01-28T15:01:18.991Z,1024.10
2018-01-28T15:02:46.387Z,1024.20
2018-01-28T15:04:13.702Z,1024.29
2018-01-28T15:05:40.911Z,1024.27
2018-01-28T15:07:08.314Z,1024.25
2018-01-28T15:08:35.562Z,1024.20
2018-01-28T15:10:02.661Z,1024.23
2018-01-28T15:11:29.736Z,1024.25
2018-01-28T15:12:57.024Z,1024.24
2018-01-28T15:14:24.344Z,1024.23
2018-01-28T15:15:51.626Z,1024.23
2018-01-28T15:17:18.950Z,1024.25
2018-01-28T15:18:46.131Z,1024.32
2018-01-28T15:20:13.450Z,1024.37
2018-01-28T15:21:40.805Z,1024.37
2018-01-28T15:23:08.066Z,1024.39
2018-01-28T15:24:35.424Z,1024.38
2018-01-28T15:26:02.540Z,1024.35
2018-01-28T15:27:29.785Z,1024.28
2018-01-28T15:28:57.146Z,1024.25
2018-01-28T15:30:24.724Z,1024.20
2018-01-28T15:31:51.832Z,1024.19
2018-01-28T15:33:19.204Z,1024.13
2018-01-28T15:34:46.425Z,1024.08
2018-01-28T15:36:13.550Z,1024.05
2018-01-28T15:37:40.606Z,1024.07
2018-01-28T15:39:07.931Z,1024.13
2018-01-28T15:40:35.183Z,1024.19
2018-01-28T15:42:02.418Z,1024.19
2018-01-28T15:43:29.968Z,1024.28
2018-01-28T15:44:57.061Z,1024.26
2018-01-28T15:46:24.196Z,1024.29
2018-01-28T15:47:51.655Z,1024.28
2018-01-28T15:49:19.031Z,1024.38
2018-01-28T15:50:46.102Z,1024.40
2018-01-28T15:52:13.393Z,1024.41
2018-01-28T15:53:40.899Z,1024.41
2018-01-28T15:55:07.967Z,1024.42
2018-01-28T15:56:35.281Z,1024.44
2018-01-28T15:58:02.379Z,1024.44
2018-01-28T15:59:29.521Z,1024.43
2018-01-28T16:00:56.943Z,1024.41
2018-01-28T16:02:24.248Z,1024.46
2018-01-28T16:03:51.430Z,1024.47
2018-01-28T16:05:18.681Z,1024.44
2018-01-28T16:06:45.835Z,1024.47
2018-01-28T16:08:13.142Z,1024.49
2018-01-28T16:09:40.317Z,1024.46
2018-01-28T16:11:07.506Z,1024.43
2018-01-28T16:12:34.658Z,1024.43
2018-01-28T16:14:01.867Z,1024.47
2018-01-28T16:15:29.158Z,1024.48
2018-01-28T16:16:56.224Z,1024.47
2018-01-28T16:18:23.775Z,1024.48
2018-01-28T16:19:50.765Z,1024.49
2018-01-28T16:21:18.170Z,1024.45
2018-01-28T16:22:45.382Z,1024.46
2018-01-28T16:24:12.755Z,1024.52
2018-01-28T16:25:40.155Z,1024.52
2018-01-28T16:27:07.393Z,1024.52
2018-01-28T16:28:34.661Z,1024.48
2018-01-28T16:30:01.843Z,1024.47
2018-01-28T16:31:29.092Z,1024.47
2018-01-28T16:32:56.423Z,1024.52
2018-01-28T16:34:23.767Z,1024.56
2018-01-28T16:35:51.023Z,1024.56
2018-01-28T16:37:18.216Z,1024.59
2018-01-28T16:38:45.291Z,1024.58
2018-01-28T16:40:12.501Z,1024.53
2018-01-28T16:41:39.748Z,1024.56
2018-01-28T16:43:07.072Z,1024.57
2018-01-28T16:44:34.213Z,1024.53
2018-01-28T16:46:01.308Z,1024.50
2018-01-28T16:47:28.586Z,1024.50
2018-01-28T16:48:55.944Z,1024.54
2018-01-28T16:50:23.197Z,1024.53
2018-01-28T16:51:50.515Z,1024.58
2018-01-28T16:53:17.962Z,1024.56
2018-01-28T16:54:45.130Z,1024.55
2018-01-28T16:56:12.432Z,1024.54
2018-01-28T16:57:39.523Z,1024.51
2018-01-28T16:59:06.878Z,1024.53
2018-01-28T17:00:34.141Z,1024.56
2018-01-28T17:02:01.329Z,1024.56
2018-01-28T17:03:28.621Z,1024.63
2018-01-28T17:04:55.923Z,1024.63
2018-01-28T17:06:23.307Z,1024.64
2018-01-28T17:07:50.521Z,1024.64
2018-01-28T17:09:18.018Z,1024.64
2018-01-28T17:10:45.472Z,1024.66
2018-01-28T17:12:12.716Z,1024.68
2018-01-28T17:13:40.075Z,1024.67
2018-01-28T17:15:07.077Z,1024.63
2018-01-28T17:16:34.197Z,1024.63
2018-01-28T17:18:01.496Z,1024.66
2018-01-28T17:19:28.705Z,1024.69
2018-01-28T17:20:55.972Z,1024.65
2018-01-28T17:22:23.273Z,1024.65
2018-01-28T17:23:50.439Z,1024.67
2018-01-28T17:25:17.716Z,1024.68
2018-01-28T17:26:44.976Z,1024.71
2018-01-28T17:28:12.304Z,1024.68
2018-01-28T17:29:39.507Z,1024.66
2018-01-28T17:31:06.530Z,1024.70
2018-01-28T17:32:33.838Z,1024.72
2018-01-28T17:34:00.985Z,1024.72
2018-01-28T17:35:27.857Z,1024.73